Time;durP1;ratioP1;P1;durP2;ratioP2;P2;SDS_P1;SDS_P2;PMS_P1;PMS_P2;Temp;Humidity;BMP_temperature;BMP_pressure;BME280_temperature;BME280_humidity;BME280_pressure;Samples;Min_cycle;Max_cycle;Signal;HPM_P1;HPM_P2
2022/12/26 00:01:25;;;;;;;2.03;0.90;;;;;;;;;;5071591;28;20028;-43
2022/12/26 00:03:51;;;;;;;1.17;0.98;;;;;;;;;;5071735;28;20024;-43
2022/12/26 00:06:19;;;;;;;2.65;0.90;;;;;;;;;;5067567;28;20074;-43
2022/12/26 00:08:45;;;;;;;1.63;0.80;;;;;;;;;;5071535;28;20483;-43
2022/12/26 00:11:12;;;;;;;1.30;0.80;;;;;;;;;;5071793;28;20058;-47
2022/12/26 00:13:41;;;;;;;1.52;0.82;;;;;;;;;;5071311;28;20028;-43
2022/12/26 00:16:08;;;;;;;1.23;0.90;;;;;;;;;;5071923;28;20021;-43
2022/12/26 00:18:34;;;;;;;1.48;1.02;;;;;;;;;;5059087;28;20024;-44
2022/12/26 00:21:00;;;;;;;1.70;1.10;;;;;;;;;;5072300;28;20025;-43
2022/12/26 00:23:26;;;;;;;1.50;1.00;;;;;;;;;;5046392;28;20021;-44
2022/12/26 00:25:52;;;;;;;0.98;0.88;;;;;;;;;;5070500;28;20096;-46
2022/12/26 00:28:18;;;;;;;1.20;1.10;;;;;;;;;;5069554;28;20037;-43
2022/12/26 00:30:44;;;;;;;1.83;1.40;;;;;;;;;;5070468;28;20359;-43
2022/12/26 00:33:10;;;;;;;0.95;0.82;;;;;;;;;;5069688;28;20028;-47
2022/12/26 00:35:36;;;;;;;0.93;0.70;;;;;;;;;;5071208;28;20515;-44
2022/12/26 00:38:02;;;;;;;1.00;0.90;;;;;;;;;;5069836;28;20020;-43
2022/12/26 00:40:28;;;;;;;1.38;0.98;;;;;;;;;;5066575;28;20031;-43
2022/12/26 00:42:54;;;;;;;1.55;1.00;;;;;;;;;;5069922;28;20760;-43
2022/12/26 00:45:20;;;;;;;1.48;0.70;;;;;;;;;;5069300;28;20029;-44
2022/12/26 00:47:46;;;;;;;1.42;1.25;;;;;;;;;;5069895;28;20033;-43
2022/12/26 00:50:12;;;;;;;0.88;0.80;;;;;;;;;;5069449;28;20462;-46
2022/12/26 00:52:38;;;;;;;2.15;0.90;;;;;;;;;;5072214;28;20024;-43
2022/12/26 00:55:04;;;;;;;1.75;0.95;;;;;;;;;;5069934;28;20028;-44
2022/12/26 00:57:30;;;;;;;1.30;0.80;;;;;;;;;;5067462;28;20029;-44
2022/12/26 00:59:56;;;;;;;0.95;0.85;;;;;;;;;;5070324;28;20090;-44
2022/12/26 01:02:37;;;;;;;1.20;1.00;;;;;;;;;;5068213;28;20059;-45
2022/12/26 01:05:04;;;;;;;1.67;1.23;;;;;;;;;;5066141;28;20049;-43
2022/12/26 01:07:33;;;;;;;0.98;0.88;;;;;;;;;;5058866;28;20189;-44
2022/12/26 01:09:59;;;;;;;1.30;0.80;;;;;;;;;;5066802;28;20024;-45
2022/12/26 01:12:26;;;;;;;1.83;1.20;;;;;;;;;;5057254;28;20077;-43
2022/12/26 01:14:52;;;;;;;1.83;0.88;;;;;;;;;;5062047;28;20020;-43
2022/12/26 01:17:18;;;;;;;1.58;1.30;;;;;;;;;;5063748;28;20024;-44
2022/12/26 01:19:44;;;;;;;1.05;0.85;;;;;;;;;;5065568;28;20036;-43
2022/12/26 01:22:10;;;;;;;1.60;0.80;;;;;;;;;;5060006;28;20033;-47
2022/12/26 01:24:36;;;;;;;2.53;0.90;;;;;;;;;;5051223;28;20021;-44
2022/12/26 01:27:02;;;;;;;1.75;0.98;;;;;;;;;;5051038;28;20017;-43
2022/12/26 01:29:28;;;;;;;1.55;1.05;;;;;;;;;;5047603;28;20047;-43
2022/12/26 01:31:54;;;;;;;0.95;0.85;;;;;;;;;;5048384;28;20106;-44
2022/12/26 01:34:20;;;;;;;1.45;0.90;;;;;;;;;;5049746;28;20017;-43
2022/12/26 01:36:45;;;;;;;1.60;1.00;;;;;;;;;;5055791;28;20021;-43
2022/12/26 01:39:12;;;;;;;1.05;0.77;;;;;;;;;;5050126;28;20059;-47
2022/12/26 01:41:38;;;;;;;2.20;1.20;;;;;;;;;;5051097;28;20037;-43
2022/12/26 01:44:05;;;;;;;1.00;0.80;;;;;;;;;;5049314;28;20021;-43
2022/12/26 01:46:35;;;;;;;1.25;0.90;;;;;;;;;;5050274;28;20013;-43
2022/12/26 01:49:06;;;;;;;1.35;1.00;;;;;;;;;;5050722;28;20098;-43
2022/12/26 01:51:34;;;;;;;1.02;0.90;;;;;;;;;;5050807;28;20127;-43
2022/12/26 01:54:01;;;;;;;1.40;1.10;;;;;;;;;;5050336;28;20035;-43
2022/12/26 01:56:34;;;;;;;1.08;0.80;;;;;;;;;;5050296;28;20454;-43
2022/12/26 01:59:27;;;;;;;1.05;0.80;;;;;;;;;;5055302;28;20041;-43
2022/12/26 02:01:53;;;;;;;1.17;0.82;;;;;;;;;;5054632;28;20068;-44
2022/12/26 02:07:10;;;;;;;2.25;1.15;;;;;;;;;;5071091;28;20036;-46
2022/12/26 02:09:36;;;;;;;1.63;0.90;;;;;;;;;;5069953;28;20035;-44
2022/12/26 02:12:16;;;;;;;1.63;0.98;;;;;;;;;;5070904;28;20419;-43
2022/12/26 02:14:42;;;;;;;1.70;0.82;;;;;;;;;;5074426;28;20454;-43
2022/12/26 02:17:08;;;;;;;1.13;0.90;;;;;;;;;;5074811;28;20016;-43
2022/12/26 02:19:44;;;;;;;1.33;0.85;;;;;;;;;;5073205;28;20025;-43
2022/12/26 02:22:29;;;;;;;0.93;0.70;;;;;;;;;;5073592;28;20486;-47
2022/12/26 02:25:04;;;;;;;0.98;0.95;;;;;;;;;;5074234;28;20029;-44
2022/12/26 02:27:49;;;;;;;1.13;0.90;;;;;;;;;;5073223;28;20615;-43
2022/12/26 02:30:30;;;;;;;1.65;0.70;;;;;;;;;;5073504;28;20470;-43
2022/12/26 02:33:08;;;;;;;2.00;1.38;;;;;;;;;;5073731;28;20029;-44
2022/12/26 02:35:34;;;;;;;0.90;0.80;;;;;;;;;;5078006;28;20016;-43
2022/12/26 02:38:19;;;;;;;1.63;0.88;;;;;;;;;;5068148;28;20031;-43
2022/12/26 02:40:55;;;;;;;1.00;0.80;;;;;;;;;;5073888;28;20025;-43
2022/12/26 02:43:29;;;;;;;1.10;0.95;;;;;;;;;;5073119;28;20089;-43
2022/12/26 02:48:43;;;;;;;1.33;0.80;;;;;;;;;;5073276;28;20039;-43
2022/12/26 03:14:52;;;;;;;1.15;0.80;;;;;;;;;;5070484;28;20024;-43
2022/12/26 03:17:29;;;;;;;1.38;0.80;;;;;;;;;;5072349;28;20369;-44
2022/12/26 03:20:02;;;;;;;0.98;0.70;;;;;;;;;;5073177;28;20087;-43
2022/12/26 03:22:43;;;;;;;1.63;0.90;;;;;;;;;;5070297;28;20359;-44
2022/12/26 03:28:12;;;;;;;0.98;0.88;;;;;;;;;;5070993;28;20040;-47
2022/12/26 03:30:50;;;;;;;0.73;0.60;;;;;;;;;;5072449;28;20032;-43
2022/12/26 03:36:05;;;;;;;1.77;0.85;;;;;;;;;;5076881;28;20035;-43
2022/12/26 03:38:56;;;;;;;1.17;0.88;;;;;;;;;;5072397;28;20032;-43
2022/12/26 04:44:08;;;;;;;1.30;1.13;;;;;;;;;;5069940;28;20059;-43
2022/12/26 04:46:36;;;;;;;2.28;0.90;;;;;;;;;;5066408;28;20024;-43
2022/12/26 04:51:50;;;;;;;0.70;0.70;;;;;;;;;;5059977;28;20551;-43
2022/12/26 04:54:17;;;;;;;1.20;0.90;;;;;;;;;;5065119;28;20028;-46
2022/12/26 04:56:43;;;;;;;1.10;0.90;;;;;;;;;;5071745;28;20021;-43
2022/12/26 04:59:09;;;;;;;1.30;0.90;;;;;;;;;;5070608;28;20032;-43
2022/12/26 05:09:53;;;;;;;1.08;0.75;;;;;;;;;;5071140;28;20040;-45
2022/12/26 05:12:19;;;;;;;3.17;0.70;;;;;;;;;;5065299;28;20107;-44
2022/12/26 05:14:45;;;;;;;0.90;0.73;;;;;;;;;;5070617;28;20458;-44
2022/12/26 05:31:00;;;;;;;3.70;1.00;;;;;;;;;;5068202;28;20063;-43
2022/12/26 05:36:12;;;;;;;5.78;0.88;;;;;;;;;;5071054;28;20054;-44
2022/12/26 05:38:38;;;;;;;2.58;0.90;;;;;;;;;;5067957;28;20753;-44
2022/12/26 05:41:04;;;;;;;1.08;0.85;;;;;;;;;;5069406;28;20051;-43
2022/12/26 05:43:30;;;;;;;1.10;0.73;;;;;;;;;;5067939;28;20099;-44
2022/12/26 05:45:56;;;;;;;1.63;1.25;;;;;;;;;;5068201;28;20445;-45
2022/12/26 05:48:22;;;;;;;0.70;0.70;;;;;;;;;;5071073;28;20056;-44
2022/12/26 05:50:48;;;;;;;2.35;1.27;;;;;;;;;;5073806;28;20404;-44
2022/12/26 05:53:14;;;;;;;3.33;0.80;;;;;;;;;;5071609;28;20056;-47
2022/12/26 05:55:40;;;;;;;2.33;1.00;;;;;;;;;;5072919;28;20017;-43
2022/12/26 05:58:06;;;;;;;1.40;1.00;;;;;;;;;;5072605;28;20028;-44
2022/12/26 06:00:32;;;;;;;0.98;0.70;;;;;;;;;;5073990;28;20082;-43
2022/12/26 06:02:59;;;;;;;0.85;0.70;;;;;;;;;;5069547;28;20024;-44
2022/12/26 06:05:25;;;;;;;0.95;0.60;;;;;;;;;;5073458;28;20383;-43
2022/12/26 06:07:51;;;;;;;1.88;0.80;;;;;;;;;;5074279;28;20078;-43
2022/12/26 06:10:17;;;;;;;1.45;0.77;;;;;;;;;;5073695;28;20071;-46
2022/12/26 06:12:43;;;;;;;1.90;1.08;;;;;;;;;;5073954;28;20021;-43
2022/12/26 06:15:09;;;;;;;0.82;0.60;;;;;;;;;;5074254;28;20024;-43
2022/12/26 06:17:35;;;;;;;1.23;0.82;;;;;;;;;;5073187;28;20050;-43
2022/12/26 06:20:01;;;;;;;1.35;1.00;;;;;;;;;;5073762;28;20067;-43
2022/12/26 06:22:30;;;;;;;1.00;0.90;;;;;;;;;;5073331;28;20419;-43
2022/12/26 06:24:56;;;;;;;1.13;0.77;;;;;;;;;;5073345;28;20016;-43
2022/12/26 06:27:22;;;;;;;1.73;0.90;;;;;;;;;;5072880;28;20025;-45
2022/12/26 06:29:48;;;;;;;4.30;1.55;;;;;;;;;;5074662;28;20037;-43
2022/12/26 06:32:14;;;;;;;1.20;0.80;;;;;;;;;;5073868;28;20024;-48
2022/12/26 06:34:40;;;;;;;0.80;0.60;;;;;;;;;;5073245;28;20100;-43
2022/12/26 06:37:06;;;;;;;3.47;1.08;;;;;;;;;;5072727;28;20040;-43
2022/12/26 06:39:32;;;;;;;1.30;0.70;;;;;;;;;;5072934;28;20033;-43
2022/12/26 06:41:58;;;;;;;1.58;1.00;;;;;;;;;;5073626;28;20512;-44
2022/12/26 06:44:24;;;;;;;1.77;0.75;;;;;;;;;;5072562;28;20028;-43
2022/12/26 06:46:50;;;;;;;0.80;0.80;;;;;;;;;;5073900;28;20044;-44
2022/12/26 06:49:16;;;;;;;0.73;0.65;;;;;;;;;;5073246;28;20476;-47
2022/12/26 06:51:43;;;;;;;1.40;0.80;;;;;;;;;;5065914;28;20178;-45
2022/12/26 06:54:10;;;;;;;1.20;0.68;;;;;;;;;;5072870;28;20500;-43
2022/12/26 06:56:36;;;;;;;1.77;0.70;;;;;;;;;;5071203;28;20085;-44
2022/12/26 06:59:03;;;;;;;1.42;1.08;;;;;;;;;;5071465;28;20032;-44
2022/12/26 07:01:30;;;;;;;2.10;1.23;;;;;;;;;;5071576;28;20056;-45
2022/12/26 07:03:56;;;;;;;2.78;0.90;;;;;;;;;;5071129;28;20466;-45
2022/12/26 07:06:24;;;;;;;1.35;0.80;;;;;;;;;;5062979;28;20084;-44
2022/12/26 07:08:50;;;;;;;1.13;0.85;;;;;;;;;;5062083;28;20376;-44
2022/12/26 07:11:17;;;;;;;1.23;0.90;;;;;;;;;;5060334;28;20032;-47
2022/12/26 07:13:43;;;;;;;1.65;1.02;;;;;;;;;;5063377;28;20092;-44
2022/12/26 07:16:10;;;;;;;0.88;0.73;;;;;;;;;;5058150;28;20037;-44
2022/12/26 07:18:36;;;;;;;1.13;0.80;;;;;;;;;;5064237;28;20047;-45
2022/12/26 07:21:06;;;;;;;2.05;1.27;;;;;;;;;;5053328;28;20025;-44
2022/12/26 07:23:32;;;;;;;1.58;1.00;;;;;;;;;;5052215;28;20064;-43
2022/12/26 07:25:59;;;;;;;2.15;0.75;;;;;;;;;;5052864;28;20070;-44
2022/12/26 07:28:25;;;;;;;2.60;1.48;;;;;;;;;;5052015;28;20378;-43
2022/12/26 07:30:51;;;;;;;1.15;0.85;;;;;;;;;;5049785;28;20022;-43
2022/12/26 07:33:17;;;;;;;0.80;0.60;;;;;;;;;;5044194;28;20427;-47
2022/12/26 07:35:43;;;;;;;2.25;0.68;;;;;;;;;;5049873;28;20041;-44
2022/12/26 07:38:10;;;;;;;1.77;0.85;;;;;;;;;;5051106;28;20036;-43
2022/12/26 07:40:36;;;;;;;1.73;1.10;;;;;;;;;;5052338;28;20025;-46
2022/12/26 07:43:02;;;;;;;3.95;0.95;;;;;;;;;;5052732;28;20120;-43
2022/12/26 07:45:28;;;;;;;1.58;0.80;;;;;;;;;;5052779;28;20029;-43
2022/12/26 07:47:54;;;;;;;1.23;0.80;;;;;;;;;;5055699;28;20407;-43
2022/12/26 07:50:20;;;;;;;0.98;0.70;;;;;;;;;;5051980;28;20028;-44
2022/12/26 07:52:46;;;;;;;1.15;0.80;;;;;;;;;;5051583;28;20028;-44
2022/12/26 07:55:12;;;;;;;1.10;0.82;;;;;;;;;;5052890;28;20021;-44
2022/12/26 07:57:38;;;;;;;1.20;0.80;;;;;;;;;;5058380;28;20562;-43
2022/12/26 08:00:04;;;;;;;2.22;1.50;;;;;;;;;;5053663;28;20021;-45
2022/12/26 08:02:31;;;;;;;1.88;1.10;;;;;;;;;;5064849;28;20069;-44
2022/12/26 08:04:56;;;;;;;2.78;1.10;;;;;;;;;;5061704;28;20049;-43
2022/12/26 08:07:22;;;;;;;1.20;0.70;;;;;;;;;;5063250;28;20359;-45
2022/12/26 08:09:48;;;;;;;1.35;0.85;;;;;;;;;;5060889;28;20091;-44
2022/12/26 08:12:14;;;;;;;1.02;0.73;;;;;;;;;;5052222;28;20027;-43
2022/12/26 08:14:41;;;;;;;2.10;0.82;;;;;;;;;;5051024;28;20425;-43
2022/12/26 08:17:07;;;;;;;0.98;0.70;;;;;;;;;;5058909;28;20071;-44
2022/12/26 08:19:33;;;;;;;1.35;0.88;;;;;;;;;;5049323;28;20098;-44
2022/12/26 08:21:59;;;;;;;2.25;0.77;;;;;;;;;;5052198;28;20463;-44
2022/12/26 08:24:25;;;;;;;2.72;1.23;;;;;;;;;;5026613;28;20075;-44
2022/12/26 08:26:51;;;;;;;1.35;1.00;;;;;;;;;;5043833;28;20479;-43
2022/12/26 08:29:17;;;;;;;1.85;0.70;;;;;;;;;;5051486;28;20074;-47
2022/12/26 08:31:43;;;;;;;3.08;0.80;;;;;;;;;;5051690;28;20463;-44
2022/12/26 08:34:10;;;;;;;7.55;1.30;;;;;;;;;;5048499;28;20036;-44
2022/12/26 08:36:37;;;;;;;3.95;0.95;;;;;;;;;;5053806;28;20060;-45
2022/12/26 08:39:03;;;;;;;3.17;0.80;;;;;;;;;;5051740;28;20069;-43
2022/12/26 08:41:29;;;;;;;4.72;0.85;;;;;;;;;;5050715;28;20025;-43
2022/12/26 08:43:54;;;;;;;1.20;0.75;;;;;;;;;;5051160;28;20060;-44
2022/12/26 08:46:21;;;;;;;3.80;0.90;;;;;;;;;;5046358;28;20052;-45
2022/12/26 08:48:48;;;;;;;1.80;0.90;;;;;;;;;;5051235;28;20021;-44
2022/12/26 08:51:15;;;;;;;0.85;0.60;;;;;;;;;;5051565;28;20021;-44
2022/12/26 08:53:41;;;;;;;1.70;1.30;;;;;;;;;;5046118;28;20083;-43
2022/12/26 08:56:14;;;;;;;1.05;0.90;;;;;;;;;;5051501;28;20029;-44
2022/12/26 08:58:40;;;;;;;2.25;1.15;;;;;;;;;;5056227;28;20035;-47
2022/12/26 09:01:17;;;;;;;1.30;1.02;;;;;;;;;;5058532;28;20017;-43
2022/12/26 09:03:43;;;;;;;3.55;0.88;;;;;;;;;;5042521;28;20021;-44
2022/12/26 09:06:10;;;;;;;1.13;0.65;;;;;;;;;;5064729;28;20060;-44
2022/12/26 09:08:36;;;;;;;2.65;0.80;;;;;;;;;;5069515;28;20027;-45
2022/12/26 09:11:17;;;;;;;3.05;0.88;;;;;;;;;;5071490;28;20388;-44
2022/12/26 09:13:43;;;;;;;2.05;1.00;;;;;;;;;;5070570;28;20074;-44
2022/12/26 09:16:09;;;;;;;4.90;1.40;;;;;;;;;;5070960;28;20012;-46
2022/12/26 09:18:36;;;;;;;1.77;0.70;;;;;;;;;;5069987;28;20420;-44
2022/12/26 09:21:02;;;;;;;3.28;0.95;;;;;;;;;;5071237;28;20017;-43
2022/12/26 09:23:29;;;;;;;4.95;1.00;;;;;;;;;;5068612;28;20074;-43
2022/12/26 09:25:55;;;;;;;2.75;0.70;;;;;;;;;;5069558;28;20378;-44
2022/12/26 09:28:21;;;;;;;4.53;0.82;;;;;;;;;;5071580;28;20025;-45
2022/12/26 09:30:47;;;;;;;3.83;1.33;;;;;;;;;;5083368;28;20021;-43
2022/12/26 09:33:13;;;;;;;3.97;0.90;;;;;;;;;;5069584;28;20055;-44
2022/12/26 09:35:39;;;;;;;2.33;1.00;;;;;;;;;;5070396;28;20672;-44
2022/12/26 09:38:06;;;;;;;2.83;0.80;;;;;;;;;;5068849;28;20490;-43
2022/12/26 09:40:47;;;;;;;4.85;1.00;;;;;;;;;;5069143;28;20025;-44
2022/12/26 09:43:16;;;;;;;1.75;1.23;;;;;;;;;;5047991;28;20099;-44
2022/12/26 09:45:48;;;;;;;3.00;0.90;;;;;;;;;;5066044;28;20021;-44
2022/12/26 09:48:20;;;;;;;3.20;0.80;;;;;;;;;;5069310;28;20035;-44
2022/12/26 09:50:46;;;;;;;;;;;;;;;;;;5071481;28;20017;-44
2022/12/26 09:53:18;;;;;;;3.38;1.15;;;;;;;;;;5070578;28;19904;-44
2022/12/26 09:56:01;;;;;;;2.60;0.93;;;;;;;;;;5070505;28;20021;-44
2022/12/26 09:58:30;;;;;;;2.75;1.15;;;;;;;;;;5062971;28;20033;-44
2022/12/26 10:01:09;;;;;;;2.22;1.02;;;;;;;;;;5064852;28;20502;-44
2022/12/26 10:03:41;;;;;;;1.92;1.17;;;;;;;;;;5069357;28;20052;-44
2022/12/26 10:06:06;;;;;;;;;;;;;;;;;;5070077;28;20055;-44
2022/12/26 10:08:51;;;;;;;15.25;1.58;;;;;;;;;;5069965;28;19912;-44
2022/12/26 10:11:25;;;;;;;1.73;1.15;;;;;;;;;;5070653;28;20029;-47
2022/12/26 10:13:56;;;;;;;2.25;0.90;;;;;;;;;;5070346;28;20028;-44
2022/12/26 10:16:26;;;;;;;8.32;1.30;;;;;;;;;;5060245;28;20020;-45
2022/12/26 10:19:04;;;;;;;3.67;1.60;;;;;;;;;;5065025;28;20078;-44
2022/12/26 10:21:48;;;;;;;2.50;1.13;;;;;;;;;;5069709;28;20492;-43
2022/12/26 10:24:16;;;;;;;6.30;2.13;;;;;;;;;;5069781;28;20025;-45
2022/12/26 10:26:45;;;;;;;2.67;1.40;;;;;;;;;;5068668;28;20466;-45
2022/12/26 10:29:17;;;;;;;7.63;2.15;;;;;;;;;;5070304;28;20020;-44
2022/12/26 10:31:50;;;;;;;6.97;1.88;;;;;;;;;;5070228;28;20078;-45
2022/12/26 10:34:17;;;;;;;6.00;1.52;;;;;;;;;;5062567;28;20056;-45
2022/12/26 10:37:03;;;;;;;6.20;2.03;;;;;;;;;;5082640;28;20021;-45
2022/12/26 10:39:33;;;;;;;6.43;2.15;;;;;;;;;;5073137;28;20027;-44
2022/12/26 10:42:00;;;;;;;4.65;1.80;;;;;;;;;;5073761;28;20470;-45
2022/12/26 10:44:27;;;;;;;6.57;1.67;;;;;;;;;;5072825;28;20070;-45
2022/12/26 10:47:08;;;;;;;3.58;1.60;;;;;;;;;;5069596;28;20044;-45
2022/12/26 10:49:36;;;;;;;6.97;2.17;;;;;;;;;;5070861;28;20033;-46
2022/12/26 10:52:02;;;;;;;5.20;1.52;;;;;;;;;;5068674;28;20041;-44
2022/12/26 10:54:29;;;;;;;5.15;1.85;;;;;;;;;;5072467;28;20526;-44
2022/12/26 10:56:56;;;;;;;6.03;1.83;;;;;;;;;;5073715;28;20056;-45
2022/12/26 10:59:26;;;;;;;5.32;1.60;;;;;;;;;;5069377;28;20078;-45
2022/12/26 11:01:52;;;;;;;3.28;1.52;;;;;;;;;;5073907;28;20075;-44
2022/12/26 11:04:21;;;;;;;12.25;1.67;;;;;;;;;;5068892;28;20774;-48
2022/12/26 11:06:51;;;;;;;4.43;1.85;;;;;;;;;;5073327;28;20032;-44
2022/12/26 11:09:39;;;;;;;3.70;1.65;;;;;;;;;;5067309;28;20032;-45
2022/12/26 11:12:05;;;;;;;6.20;1.77;;;;;;;;;;5073713;28;20033;-43
2022/12/26 11:14:39;;;;;;;4.13;2.17;;;;;;;;;;5072389;28;20020;-43
2022/12/26 11:17:11;;;;;;;7.93;2.08;;;;;;;;;;5073246;28;20024;-43
2022/12/26 11:19:38;;;;;;;8.38;1.65;;;;;;;;;;5072334;28;20035;-43
2022/12/26 11:22:15;;;;;;;8.30;2.25;;;;;;;;;;5073243;28;20025;-43
2022/12/26 11:24:42;;;;;;;6.00;1.90;;;;;;;;;;5053440;28;20377;-43
2022/12/26 11:27:19;;;;;;;4.47;2.00;;;;;;;;;;5073182;28;20026;-44
2022/12/26 11:29:45;;;;;;;6.63;1.92;;;;;;;;;;5073156;28;20027;-44
2022/12/26 11:32:18;;;;;;;7.00;2.15;;;;;;;;;;5072767;28;20386;-43
2022/12/26 11:34:46;;;;;;;5.57;2.05;;;;;;;;;;5072648;28;20013;-45
2022/12/26 11:37:26;;;;;;;6.60;1.83;;;;;;;;;;5064424;28;20029;-43
2022/12/26 11:39:52;;;;;;;7.03;2.10;;;;;;;;;;5073233;28;20416;-43
2022/12/26 11:42:20;;;;;;;8.30;1.83;;;;;;;;;;5056505;28;20107;-46
2022/12/26 11:44:51;;;;;;;4.55;1.92;;;;;;;;;;5068689;28;20044;-43
2022/12/26 11:47:18;;;;;;;4.63;1.60;;;;;;;;;;5068581;28;20027;-46
2022/12/26 11:49:53;;;;;;;3.22;1.30;;;;;;;;;;5072039;28;20039;-43
2022/12/26 11:52:37;;;;;;;5.15;1.48;;;;;;;;;;5064049;28;20478;-46
2022/12/26 11:55:24;;;;;;;2.92;1.55;;;;;;;;;;5072927;28;20035;-43
2022/12/26 11:57:56;;;;;;;4.57;1.80;;;;;;;;;;5071907;28;20036;-43
2022/12/26 12:00:23;;;;;;;5.03;1.42;;;;;;;;;;5065755;28;20469;-43
2022/12/26 12:02:49;;;;;;;5.35;1.50;;;;;;;;;;5072040;28;20408;-43
2022/12/26 12:05:18;;;;;;;3.33;1.70;;;;;;;;;;5072145;28;20098;-43
2022/12/26 12:07:53;;;;;;;2.97;1.75;;;;;;;;;;5071192;28;20075;-43
2022/12/26 12:10:38;;;;;;;2.75;1.50;;;;;;;;;;5064818;28;20033;-45
2022/12/26 12:13:07;;;;;;;5.53;1.92;;;;;;;;;;5072024;28;20036;-42
2022/12/26 12:15:36;;;;;;;3.90;1.40;;;;;;;;;;5069078;28;20020;-42
2022/12/26 12:18:10;;;;;;;3.65;1.60;;;;;;;;;;5069320;28;20389;-43
2022/12/26 12:20:54;;;;;;;3.55;1.42;;;;;;;;;;5071040;28;20116;-43
2022/12/26 12:23:26;;;;;;;3.55;1.48;;;;;;;;;;5058665;28;20045;-48
2022/12/26 12:26:06;;;;;;;2.72;1.25;;;;;;;;;;5068376;28;20029;-48
2022/12/26 12:28:43;;;;;;;6.78;1.42;;;;;;;;;;5062894;28;20102;-45
2022/12/26 12:31:27;;;;;;;5.10;1.33;;;;;;;;;;5070702;28;20078;-46
2022/12/26 12:34:08;;;;;;;4.97;1.08;;;;;;;;;;5063703;28;20044;-45
2022/12/26 12:36:50;;;;;;;5.80;1.65;;;;;;;;;;5070898;28;20031;-46
2022/12/26 12:39:20;;;;;;;10.10;1.65;;;;;;;;;;5068563;28;20533;-45
2022/12/26 12:42:06;;;;;;;3.53;1.50;;;;;;;;;;5069670;28;20029;-44
2022/12/26 12:44:38;;;;;;;3.67;1.38;;;;;;;;;;5027026;28;20039;-44
2022/12/26 12:47:07;;;;;;;7.25;2.25;;;;;;;;;;5073056;28;20028;-44
2022/12/26 12:49:47;;;;;;;8.10;3.05;;;;;;;;;;5062858;28;20071;-45
2022/12/26 12:52:31;;;;;;;9.88;3.70;;;;;;;;;;5070784;28;20619;-45
2022/12/26 12:55:00;;;;;;;7.80;4.43;;;;;;;;;;5069639;28;20094;-46
2022/12/26 12:57:29;;;;;;;10.02;3.83;;;;;;;;;;5068933;28;20438;-44
2022/12/26 13:00:04;;;;;;;11.18;4.30;;;;;;;;;;5066960;28;20043;-46
2022/12/26 13:02:32;;;;;;;7.75;3.97;;;;;;;;;;5069325;28;20021;-48
2022/12/26 13:05:17;;;;;;;7.70;3.33;;;;;;;;;;5069289;28;20056;-47
2022/12/26 13:07:45;;;;;;;8.32;3.70;;;;;;;;;;5066394;28;20016;-45
2022/12/26 13:10:22;;;;;;;7.57;3.85;;;;;;;;;;5058062;28;20060;-45
2022/12/26 13:12:50;;;;;;;8.18;3.70;;;;;;;;;;5067423;28;21223;-45
2022/12/26 13:15:24;;;;;;;6.72;2.85;;;;;;;;;;5061925;28;20048;-45
2022/12/26 13:18:13;;;;;;;9.48;3.72;;;;;;;;;;5078559;28;20099;-45
2022/12/26 13:20:48;;;;;;;10.27;3.60;;;;;;;;;;5057059;28;20024;-45
2022/12/26 13:26:22;;;;;;;6.07;3.10;;;;;;;;;;5069568;28;20699;-47
2022/12/26 13:28:54;;;;;;;8.25;2.92;;;;;;;;;;5066035;28;20540;-46
2022/12/26 13:31:20;;;;;;;4.90;2.25;;;;;;;;;;5069857;28;20029;-49
2022/12/26 13:33:46;;;;;;;6.35;2.45;;;;;;;;;;5058823;28;20362;-45
2022/12/26 13:36:32;;;;;;;5.80;2.60;;;;;;;;;;5074799;28;20032;-45
2022/12/26 13:39:00;;;;;;;7.60;3.17;;;;;;;;;;5065667;28;20043;-45
2022/12/26 13:44:17;;;;;;;4.07;2.38;;;;;;;;;;5059114;28;20075;-45
2022/12/26 13:46:43;;;;;;;7.43;2.75;;;;;;;;;;5054108;28;20013;-46
2022/12/26 13:49:28;;;;;;;8.50;2.90;;;;;;;;;;5064620;28;20044;-45
2022/12/26 13:51:56;;;;;;;3.72;2.00;;;;;;;;;;5066193;28;20048;-49
2022/12/26 13:54:23;;;;;;;8.40;1.98;;;;;;;;;;5061179;28;20033;-45
2022/12/26 13:56:51;;;;;;;4.90;1.85;;;;;;;;;;5069642;28;20489;-44
2022/12/26 13:59:23;;;;;;;6.32;2.35;;;;;;;;;;5063910;28;20455;-49
2022/12/26 14:02:01;;;;;;;6.50;2.00;;;;;;;;;;5070214;28;20075;-45
2022/12/26 14:04:36;;;;;;;3.65;2.10;;;;;;;;;;5061048;28;20032;-45
2022/12/26 14:07:13;;;;;;;6.80;1.92;;;;;;;;;;5069281;28;20025;-45
2022/12/26 14:09:45;;;;;;;6.63;1.95;;;;;;;;;;5068101;28;20067;-45
2022/12/26 14:12:11;;;;;;;;;;;;;;;;;;5074523;28;20084;-45
2022/12/26 14:14:43;;;;;;;4.60;1.80;;;;;;;;;;5057082;28;20020;-46
2022/12/26 14:17:09;;;;;;;6.43;2.42;;;;;;;;;;5072917;28;20474;-45
2022/12/26 14:19:57;;;;;;;3.60;1.40;;;;;;;;;;5070626;28;20036;-45
2022/12/26 14:22:41;;;;;;;5.70;1.50;;;;;;;;;;5067032;28;20028;-49
2022/12/26 14:25:15;;;;;;;2.75;1.20;;;;;;;;;;5067138;28;20036;-47
2022/12/26 14:27:45;;;;;;;6.68;2.05;;;;;;;;;;5069999;28;20018;-45
2022/12/26 14:30:29;;;;;;;3.50;1.83;;;;;;;;;;5071990;28;20054;-46
2022/12/26 14:33:03;;;;;;;6.32;1.55;;;;;;;;;;5068698;28;20135;-45
2022/12/26 14:35:56;;;;;;;4.85;1.92;;;;;;;;;;5071721;28;20503;-45
2022/12/26 14:38:31;;;;;;;3.70;1.65;;;;;;;;;;5048541;28;20036;-46
2022/12/26 14:40:57;;;;;;;3.78;1.65;;;;;;;;;;5073787;28;20039;-47
2022/12/26 14:43:28;;;;;;;5.55;1.95;;;;;;;;;;5072620;28;20029;-47
2022/12/26 14:45:56;;;;;;;5.40;1.70;;;;;;;;;;5081255;28;20074;-46
2022/12/26 14:48:22;;;;;;;1.90;1.02;;;;;;;;;;5067549;28;20047;-47
2022/12/26 14:50:51;;;;;;;4.63;2.28;;;;;;;;;;5078617;28;20036;-45
2022/12/26 14:53:17;;;;;;;3.25;1.55;;;;;;;;;;5070992;28;20028;-46
2022/12/26 14:55:47;;;;;;;3.75;1.15;;;;;;;;;;5079290;28;20040;-45
2022/12/26 14:58:32;;;;;;;4.93;1.20;;;;;;;;;;5061112;28;20077;-46
2022/12/26 15:01:17;;;;;;;2.65;1.33;;;;;;;;;;5072197;28;20033;-47
2022/12/26 15:03:47;;;;;;;3.80;1.30;;;;;;;;;;5068244;28;20039;-46
2022/12/26 15:06:19;;;;;;;3.80;1.35;;;;;;;;;;5070006;28;20051;-46
2022/12/26 15:09:01;;;;;;;3.30;1.17;;;;;;;;;;5067112;28;20020;-45
2022/12/26 15:11:29;;;;;;;3.00;1.10;;;;;;;;;;5070962;28;20124;-45
2022/12/26 15:14:25;;;;;;;5.10;1.40;;;;;;;;;;5067590;28;20474;-45
2022/12/26 15:16:51;;;;;;;2.55;1.30;;;;;;;;;;5071457;28;20044;-45
2022/12/26 15:19:32;;;;;;;3.92;1.20;;;;;;;;;;5070063;28;20025;-49
2022/12/26 15:22:17;;;;;;;5.07;1.10;;;;;;;;;;5067655;28;20131;-45
2022/12/26 15:25:01;;;;;;;2.40;1.38;;;;;;;;;;5068710;28;20554;-44
2022/12/26 15:27:35;;;;;;;2.17;0.90;;;;;;;;;;5071444;28;20198;-45
2022/12/26 15:30:10;;;;;;;1.98;0.80;;;;;;;;;;5071978;28;20085;-45
2022/12/26 15:32:36;;;;;;;5.43;0.95;;;;;;;;;;5061475;28;20414;-45
2022/12/26 15:35:18;;;;;;;3.05;1.10;;;;;;;;;;5071829;28;20142;-43
2022/12/26 15:37:44;;;;;;;;;;;;;;;;;;5073961;28;20033;-43
2022/12/26 15:40:25;;;;;;;3.13;1.10;;;;;;;;;;5065488;28;20350;-45
2022/12/26 15:42:57;;;;;;;4.13;1.00;;;;;;;;;;5067989;28;20489;-43
2022/12/26 15:45:41;;;;;;;2.13;1.10;;;;;;;;;;5063588;28;20025;-43
2022/12/26 15:48:39;;;;;;;3.08;1.20;;;;;;;;;;5067641;28;20509;-44
2022/12/26 15:51:23;;;;;;;1.60;0.90;;;;;;;;;;5025944;28;20075;-43
2022/12/26 15:54:01;;;;;;;3.38;1.55;;;;;;;;;;5059910;28;20032;-44
2022/12/26 15:56:40;;;;;;;2.08;0.80;;;;;;;;;;5069276;28;20064;-44
2022/12/26 15:59:25;;;;;;;1.50;0.80;;;;;;;;;;5067647;28;20059;-43
2022/12/26 16:01:52;;;;;;;2.60;1.08;;;;;;;;;;5068130;28;20129;-44
2022/12/26 16:04:29;;;;;;;1.35;0.88;;;;;;;;;;5066863;28;20054;-46
2022/12/26 16:07:13;;;;;;;2.95;0.70;;;;;;;;;;5070794;28;20098;-44
2022/12/26 16:09:51;;;;;;;1.73;0.95;;;;;;;;;;5065740;28;20696;-44
2022/12/26 16:12:23;;;;;;;5.53;1.45;;;;;;;;;;5066030;28;20040;-47
2022/12/26 16:14:49;;;;;;;;;;;;;;;;;;5070160;28;20490;-43
2022/12/26 16:17:15;;;;;;;1.73;1.13;;;;;;;;;;5078325;28;19982;-44
2022/12/26 16:19:42;;;;;;;5.80;0.93;;;;;;;;;;5066362;28;20381;-44
2022/12/26 16:25:00;;;;;;;2.63;1.08;;;;;;;;;;5070862;28;20027;-44
2022/12/26 16:27:26;;;;;;;2.40;0.88;;;;;;;;;;5063015;28;20139;-44
2022/12/26 16:29:55;;;;;;;2.03;1.33;;;;;;;;;;5067260;28;20580;-43
2022/12/26 16:32:24;;;;;;;3.20;0.90;;;;;;;;;;5064556;28;20029;-47
2022/12/26 16:34:50;;;;;;;1.13;0.85;;;;;;;;;;5064905;28;20106;-44
2022/12/26 16:37:18;;;;;;;1.95;0.73;;;;;;;;;;5070448;28;20047;-44
2022/12/26 16:39:45;;;;;;;1.33;0.88;;;;;;;;;;5066528;28;20025;-44
2022/12/26 16:42:30;;;;;;;3.55;1.13;;;;;;;;;;5070835;28;20066;-43
2022/12/26 16:44:56;;;;;;;1.10;0.70;;;;;;;;;;5067677;28;20385;-44
2022/12/26 16:47:23;;;;;;;2.05;0.73;;;;;;;;;;5068196;28;20033;-47
2022/12/26 16:49:49;;;;;;;1.30;0.70;;;;;;;;;;5067707;28;20041;-44
2022/12/26 16:52:33;;;;;;;1.45;0.70;;;;;;;;;;5069738;28;20174;-44
2022/12/26 16:55:19;;;;;;;1.30;0.70;;;;;;;;;;5070413;28;20013;-44
2022/12/26 16:57:45;;;;;;;1.88;0.80;;;;;;;;;;5066616;28;20530;-44
2022/12/26 17:00:16;;;;;;;1.63;0.63;;;;;;;;;;5069092;28;20028;-42
2022/12/26 17:02:45;;;;;;;1.27;0.82;;;;;;;;;;5066904;28;20814;-44
2022/12/26 17:05:45;;;;;;;1.25;0.70;;;;;;;;;;5052446;28;20117;-44
2022/12/26 17:08:12;;;;;;;2.95;0.90;;;;;;;;;;5010583;28;20044;-44
2022/12/26 17:10:45;;;;;;;3.20;0.95;;;;;;;;;;5066735;28;20112;-44
2022/12/26 17:13:18;;;;;;;2.50;0.95;;;;;;;;;;5063264;28;20131;-41
2022/12/26 17:15:55;;;;;;;5.07;1.02;;;;;;;;;;5065681;28;20028;-44
2022/12/26 17:18:36;;;;;;;4.25;1.23;;;;;;;;;;5070631;28;20035;-46